createdAt,value
2022-11-19T00:02:43.049Z,7.34
2022-11-19T00:07:34.862Z,7.39
2022-11-19T00:12:45.131Z,7.42
2022-11-19T00:17:36.772Z,7.45
2022-11-19T00:22:28.452Z,7.46
2022-11-19T00:27:20.091Z,7.48
2022-11-19T00:32:11.744Z,7.50
2022-11-19T00:37:03.400Z,7.52
2022-11-19T00:41:55.173Z,7.52
2022-11-19T00:46:46.879Z,7.51
2022-11-19T00:51:38.617Z,7.53
2022-11-19T00:56:30.317Z,7.50
2022-11-19T01:01:24.198Z,7.55
2022-11-19T01:06:19.744Z,7.56
2022-11-19T01:11:32.414Z,7.59
2022-11-19T01:16:28.653Z,7.58
2022-11-19T01:21:22.861Z,7.59
2022-11-19T01:26:15.724Z,7.55
2022-11-19T01:31:20.754Z,7.54
2022-11-19T01:36:15.280Z,7.53
2022-11-19T01:41:07.971Z,7.55
2022-11-19T01:45:59.546Z,7.58
2022-11-19T01:50:57.317Z,7.58
2022-11-19T01:55:50.722Z,7.60
2022-11-19T02:00:42.884Z,7.61
2022-11-19T02:05:36.175Z,7.62
2022-11-19T02:10:46.085Z,7.59
2022-11-19T02:15:48.113Z,7.62
2022-11-19T02:21:14.914Z,7.67
2022-11-19T02:26:34.369Z,7.68
2022-11-19T02:31:42.532Z,7.65
2022-11-19T02:36:41.000Z,7.58
2022-11-19T02:41:55.251Z,7.49
2022-11-19T02:46:50.389Z,7.46
2022-11-19T02:51:42.916Z,7.41
2022-11-19T02:57:04.231Z,7.38
2022-11-19T03:02:15.206Z,7.33
2022-11-19T03:07:25.052Z,7.30
2022-11-19T03:12:37.776Z,7.29
2022-11-19T03:17:54.803Z,7.26
2022-11-19T03:22:54.159Z,7.26
2022-11-19T03:27:49.363Z,7.29
2022-11-19T03:32:47.636Z,7.28
2022-11-19T03:37:42.977Z,7.27
2022-11-19T03:42:35.684Z,7.21
2022-11-19T03:47:40.979Z,7.13
2022-11-19T03:52:33.492Z,7.02
2022-11-19T03:57:26.916Z,6.98
2022-11-19T04:02:19.098Z,6.91
2022-11-19T04:07:18.133Z,6.88
2022-11-19T04:12:16.358Z,6.86
2022-11-19T04:17:07.895Z,6.86
2022-11-19T04:21:59.587Z,6.86
2022-11-19T04:26:51.267Z,6.84
2022-11-19T04:31:43.420Z,6.82
2022-11-19T04:36:36.799Z,6.78
2022-11-19T04:41:28.632Z,6.73
2022-11-19T04:46:20.404Z,6.70
2022-11-19T04:51:12.106Z,6.69
2022-11-19T04:56:04.153Z,6.73
2022-11-19T05:00:55.830Z,6.73
2022-11-19T05:05:47.584Z,6.71
2022-11-19T05:10:39.231Z,6.70
2022-11-19T05:15:30.979Z,6.70
2022-11-19T05:20:22.553Z,6.67
2022-11-19T05:25:14.426Z,6.66
2022-11-19T05:30:06.798Z,6.65
2022-11-19T05:34:58.455Z,6.66
2022-11-19T05:39:50.022Z,6.65
2022-11-19T05:44:41.704Z,6.65
2022-11-19T05:49:33.305Z,6.61
2022-11-19T05:54:25.125Z,6.59
2022-11-19T05:59:17.225Z,6.53
2022-11-19T06:04:11.073Z,6.55
2022-11-19T06:09:02.752Z,6.54
2022-11-19T06:13:54.466Z,6.54
2022-11-19T06:18:46.085Z,6.46
2022-11-19T06:23:37.717Z,6.39
2022-11-19T06:28:29.505Z,6.30
2022-11-19T06:33:21.080Z,6.19
2022-11-19T06:38:13.024Z,6.07
2022-11-19T06:43:05.127Z,6.06
2022-11-19T06:47:56.785Z,5.98
2022-11-19T06:52:48.760Z,5.88
2022-11-19T06:57:40.383Z,5.83
2022-11-19T07:02:32.062Z,5.79
2022-11-19T07:07:23.790Z,5.76
2022-11-19T07:12:15.560Z,5.73
2022-11-19T07:17:07.281Z,5.66
2022-11-19T07:21:58.955Z,5.68
2022-11-19T07:26:50.623Z,5.73
2022-11-19T07:31:42.485Z,5.76
2022-11-19T07:36:34.228Z,5.76
2022-11-19T07:41:44.592Z,5.75
2022-11-19T07:46:36.398Z,5.73
2022-11-19T07:51:28.503Z,5.74
2022-11-19T07:56:20.606Z,5.74
2022-11-19T08:01:18.576Z,5.76
2022-11-19T08:06:10.443Z,5.72
2022-11-19T08:11:06.809Z,5.69
2022-11-19T08:16:06.750Z,5.70
2022-11-19T08:21:11.898Z,5.81
2022-11-19T08:26:06.075Z,5.89
2022-11-19T08:31:04.956Z,6.00
2022-11-19T08:35:56.610Z,6.09
2022-11-19T08:40:53.091Z,6.14
2022-11-19T08:45:54.422Z,6.23
2022-11-19T08:50:46.080Z,6.29
2022-11-19T08:55:37.702Z,6.28
2022-11-19T09:00:30.136Z,6.32
2022-11-19T09:05:21.904Z,6.61
2022-11-19T09:10:13.617Z,6.99
2022-11-19T09:15:06.131Z,7.57
2022-11-19T09:19:57.986Z,8.12
2022-11-19T09:24:49.712Z,8.44
2022-11-19T09:29:41.345Z,8.76
2022-11-19T09:34:35.258Z,9.27
2022-11-19T09:39:26.910Z,9.77
2022-11-19T09:44:18.659Z,10.12
2022-11-19T09:49:17.224Z,10.31
2022-11-19T09:54:18.048Z,10.45
2022-11-19T09:59:39.472Z,10.36
2022-11-19T10:04:33.557Z,10.14
2022-11-19T10:09:50.997Z,10.10
2022-11-19T10:14:48.481Z,9.90
2022-11-19T10:19:56.599Z,9.82
2022-11-19T10:25:13.563Z,10.22
2022-11-19T10:30:17.206Z,10.29
2022-11-19T10:35:18.119Z,10.27
2022-11-19T10:40:17.071Z,10.52
2022-11-19T10:45:25.631Z,10.90
2022-11-19T10:50:19.375Z,11.21
2022-11-19T10:55:33.397Z,11.12
2022-11-19T11:00:25.068Z,11.09
2022-11-19T11:05:19.095Z,11.28
2022-11-19T11:10:35.483Z,11.59
2022-11-19T11:15:27.604Z,12.04
2022-11-19T11:20:20.166Z,12.36
2022-11-19T11:25:24.332Z,12.65
2022-11-19T11:30:17.571Z,12.84
2022-11-19T11:35:29.892Z,12.95
2022-11-19T11:40:24.039Z,12.95
2022-11-19T11:45:33.003Z,13.08
2022-11-19T11:50:27.585Z,13.03
2022-11-19T11:55:25.589Z,13.16
2022-11-19T12:00:45.659Z,13.17
2022-11-19T12:05:45.900Z,13.18
2022-11-19T12:11:01.749Z,13.00
2022-11-19T12:16:31.139Z,12.82
2022-11-19T12:21:43.923Z,12.66
2022-11-19T12:26:47.528Z,12.53
2022-11-19T12:31:57.629Z,12.50
2022-11-19T12:37:04.544Z,12.48
2022-11-19T12:42:08.382Z,12.23
2022-11-19T12:47:12.938Z,12.11
2022-11-19T12:52:50.308Z,11.95
2022-11-19T12:58:10.658Z,11.82
2022-11-19T13:03:36.438Z,11.82
2022-11-19T13:08:43.801Z,11.77
2022-11-19T13:13:37.859Z,11.77
2022-11-19T13:18:34.642Z,11.77
2022-11-19T13:23:32.743Z,11.73
2022-11-19T13:28:30.672Z,11.72
2022-11-19T13:33:25.229Z,11.64
2022-11-19T13:38:27.542Z,11.54
2022-11-19T13:43:39.940Z,11.44
2022-11-19T13:48:39.810Z,11.38
2022-11-19T13:53:40.820Z,11.27
2022-11-19T13:58:38.403Z,11.13
2022-11-19T14:03:44.059Z,11.01
2022-11-19T14:09:00.184Z,10.88
2022-11-19T14:14:40.840Z,10.70
2022-11-19T14:20:07.635Z,10.57
2022-11-19T14:25:18.087Z,10.48
2022-11-19T14:30:12.464Z,10.36
2022-11-19T14:35:04.682Z,10.23
2022-11-19T14:40:02.817Z,10.13
2022-11-19T14:45:03.444Z,10.00
2022-11-19T14:49:55.388Z,9.96
2022-11-19T14:54:54.717Z,9.88
2022-11-19T14:59:51.048Z,9.80
2022-11-19T15:04:53.320Z,9.78
2022-11-19T15:09:51.412Z,9.78
2022-11-19T15:15:02.934Z,9.72
2022-11-19T15:20:19.805Z,9.64
2022-11-19T15:25:26.798Z,9.58
2022-11-19T15:30:39.186Z,9.54
2022-11-19T15:36:15.989Z,9.50
2022-11-19T15:41:12.874Z,9.44
2022-11-19T15:46:12.477Z,9.37
2022-11-19T15:51:07.248Z,9.29
2022-11-19T15:56:07.193Z,9.24
2022-11-19T16:00:59.080Z,9.19
2022-11-19T16:06:07.823Z,9.12
2022-11-19T16:11:20.727Z,9.06
2022-11-19T16:16:55.603Z,9.00
2022-11-19T16:22:07.743Z,8.96
2022-11-19T16:27:01.506Z,8.92
2022-11-19T16:31:56.931Z,8.91
2022-11-19T16:36:49.447Z,8.84
2022-11-19T16:42:00.833Z,8.73
2022-11-19T16:46:52.645Z,8.63
2022-11-19T16:51:50.299Z,8.52
2022-11-19T16:56:47.750Z,8.45
2022-11-19T17:01:39.631Z,8.31
2022-11-19T17:06:33.398Z,8.19
2022-11-19T17:12:10.513Z,8.02
2022-11-19T17:17:03.813Z,7.96
2022-11-19T17:22:18.340Z,7.87
2022-11-19T17:27:29.627Z,7.75
2022-11-19T17:32:21.506Z,7.62
2022-11-19T17:37:13.415Z,7.52
2022-11-19T17:42:23.647Z,7.48
2022-11-19T17:47:22.777Z,7.41
2022-11-19T17:52:30.427Z,7.34
2022-11-19T17:57:22.494Z,7.33
2022-11-19T18:02:16.567Z,7.30
2022-11-19T18:07:08.247Z,7.30
2022-11-19T18:12:00.173Z,7.28
2022-11-19T18:16:52.046Z,7.29
2022-11-19T18:21:45.792Z,7.31
2022-11-19T18:26:37.589Z,7.29
2022-11-19T18:31:29.793Z,7.24
2022-11-19T18:36:22.126Z,7.25
2022-11-19T18:41:15.762Z,7.22
2022-11-19T18:46:07.310Z,7.17
2022-11-19T18:50:58.917Z,7.17
2022-11-19T18:55:51.053Z,7.16
2022-11-19T19:00:43.101Z,7.15
2022-11-19T19:05:34.866Z,7.13
2022-11-19T19:10:26.514Z,7.10
2022-11-19T19:15:18.383Z,7.08
2022-11-19T19:20:10.663Z,7.01
2022-11-19T19:25:02.609Z,6.96
2022-11-19T19:29:54.197Z,6.93
2022-11-19T19:34:45.981Z,6.90
2022-11-19T19:39:37.593Z,6.85
2022-11-19T19:44:29.232Z,6.85
2022-11-19T19:49:21.472Z,6.84
2022-11-19T19:54:14.235Z,6.80
2022-11-19T19:59:05.867Z,6.77
2022-11-19T20:04:02.694Z,6.73
2022-11-19T20:08:54.366Z,6.70
2022-11-19T20:13:46.297Z,6.66
2022-11-19T20:18:38.845Z,6.61
2022-11-19T20:23:30.797Z,6.58
2022-11-19T20:28:22.423Z,6.54
2022-11-19T20:33:14.041Z,6.51
2022-11-19T20:38:05.666Z,6.43
2022-11-19T20:43:15.933Z,6.42
2022-11-19T20:48:07.679Z,6.40
2022-11-19T20:52:59.300Z,6.35
2022-11-19T20:57:50.909Z,6.36
2022-11-19T21:02:42.580Z,6.36
2022-11-19T21:07:34.301Z,6.37
2022-11-19T21:12:26.107Z,6.37
2022-11-19T21:17:17.715Z,6.37
2022-11-19T21:22:09.336Z,6.36
2022-11-19T21:27:01.053Z,6.35
2022-11-19T21:31:52.811Z,6.34
2022-11-19T21:36:46.003Z,6.33
2022-11-19T21:41:38.295Z,6.30
2022-11-19T21:46:30.370Z,6.33
2022-11-19T21:51:24.910Z,6.30
2022-11-19T21:56:17.011Z,6.32
2022-11-19T22:01:11.270Z,6.32
2022-11-19T22:06:08.471Z,6.27
2022-11-19T22:11:00.500Z,6.22
2022-11-19T22:16:00.676Z,6.20
2022-11-19T22:21:03.140Z,6.16
2022-11-19T22:25:54.821Z,6.14
2022-11-19T22:30:53.026Z,6.10
2022-11-19T22:35:44.646Z,6.07
2022-11-19T22:40:36.236Z,6.03
2022-11-19T22:45:27.951Z,6.05
2022-11-19T22:50:19.649Z,6.05
2022-11-19T22:55:11.715Z,6.05
2022-11-19T23:00:13.138Z,6.07
2022-11-19T23:05:05.468Z,6.05
2022-11-19T23:09:57.311Z,6.04
2022-11-19T23:14:48.907Z,6.04
2022-11-19T23:19:40.775Z,6.04
2022-11-19T23:24:33.514Z,6.03
2022-11-19T23:29:25.155Z,6.04
2022-11-19T23:34:16.688Z,6.03
2022-11-19T23:39:15.066Z,6.02
2022-11-19T23:44:06.950Z,6.04
2022-11-19T23:49:00.273Z,6.00
2022-11-19T23:53:52.793Z,6.01
2022-11-19T23:58:44.913Z,5.97
